AirNav   Pilot Hours Calculator
 
 945 users online  

17N Cross Keys Airport
Cross Keys, New Jersey, USA

GOING TO CROSS KEYS?


FAA INFORMATION EFFECTIVE 02 JANUARY 2020

Location

FAA Identifier: 17N
Lat/Long: 39-42-19.7130N 075-01-58.8110W
39-42.328550N 075-01.980183W
39.7054758,-75.0330031
(estimated)
Elevation: 162 ft. / 49 m (estimated)
Variation: 10W (1980)
From city: 1 mile S of CROSS KEYS, NJ
Time zone: UTC -5 (UTC -4 during Daylight Saving Time)
Zip code: 08094

Airport Operations

Airport use: Open to the public
Activation date: 06/1954
Control tower: no
ARTCC: NEW YORK CENTER
FSS: MILLVILLE FLIGHT SERVICE STATION
NOTAMs facility: MIV (NOTAM-D service available)
Attendance: 0800-1700
Pattern altitude: 1000 ft. MSL
Wind indicator: lighted
Segmented circle: yes
Lights: SS-SR
Beacon: white-green (lighted land airport)
RTG BCN ON CONTINUOUSLY.

Airport Communications

CTAF/UNICOM: 122.8
PHILADELPHIA APPROACH: 127.35 133.875
PHILADELPHIA DEPARTURE: 127.35 133.875
WX AWOS-AV at N81 (13 nm E): 122.7
WX ASOS at PHL (14 nm NW): PHONE 215-492-9617
WX ASOS at VAY (17 nm NE): 119.325 (609-267-1176)

Nearby radio navigation aids

VOR radial/distance  VOR name  Freq  Var
VCNr353/10.5CEDAR LAKE VOR/DME115.2010W
OODr082/13.1WOODSTOWN VORTAC112.8010W
ACYr315/25.9ATLANTIC CITY VORTAC108.6010W
DQOr096/26.6DUPONT VORTAC114.0010W
GXUr240/27.1MC GUIRE VORTAC110.6012W
CYNr266/28.5COYLE VORTAC113.4010W
MXEr122/32.0MODENA VORTAC113.2009W
ARDr200/33.4YARDLEY VOR/DME108.2010W
ENOr047/36.2SMYRNA VORTAC111.4009W
SIEr353/38.2SEA ISLE VORTAC114.8009W
RBVr230/38.7ROBBINSVILLE VORTAC113.8010W
PTWr151/39.4POTTSTOWN VORTAC116.5009W

 
NDB name  Hdg/Dist  Freq  Var  ID
RAINBOW026/17.936311WRNB .-. -. -...
AMBLER167/27.827512WING .. -. --.
LAKEHURST249/38.039611WNEL -. . .-..

Airport Services

Fuel available: 100LL JET-A
Parking: tiedowns
Airframe service: MAJOR
Powerplant service: MAJOR
Bottled oxygen: NONE
Bulk oxygen: NONE

Runway Information

Runway 9/27

Dimensions: 3500 x 50 ft. / 1067 x 15 m
Surface: asphalt, in good condition
Weight bearing capacity: 
Single wheel: 13.0
Runway edge lights: non-standard
LIRL LGT SPACING NSTD.
RUNWAY 9  RUNWAY 27
Latitude: 39-42.249150N39-42.408350N
Longitude: 075-02.338567W075-01.621217W
Elevation: 137.0 ft.161.0 ft.
Traffic pattern: rightleft
Runway heading: 084 magnetic, 074 true264 magnetic, 254 true
Displaced threshold: no200 ft.
DSPLCD THLD MARKED WITH LGTS.
Markings: nonprecision, in good conditionbasic, in good condition
Runway end identifier lights: nono
Touchdown point: yes, no lightsyes, no lights
Obstructions: 90 ft. trees, 900 ft. from runway, 250 ft. left of centerline, 7:1 slope to clear
+20 FT TREES 50 FT RT & LFT OF EXTD CTLN 0-200 FT FM APP END. +60 FT TREES 200 FT RT & LFT OF EXTD CTLN AT APP END.
73 ft. tree, 570 ft. from runway, 135 ft. right of centerline, 5:1 slope to clear
ROAD, FENCE, BLDGS, & TREES NEAR APCH END.

Airport Ownership and Management from official FAA records

Ownership: Privately-owned
Owner: CROSS KEYS AIRPORT INC
1531 N. TUCKAHOE ROAD
WILLIAMSTOWN, NJ 08094
Phone 856-629-3033
Manager: HARRY STRAHLENDORF
1531 N. TUCKAHOE ROAD
WILLIAMSTOWN, NJ 08094
Phone 856-629-3033

Airport Operational Statistics

Aircraft based on the field: 33
Single engine airplanes: 28
Multi engine airplanes: 3
Helicopters: 2
    
Aircraft operations: avg 62/day *
65% local general aviation
35% transient general aviation
* for 12-month period ending 02 April 2015

Additional Remarks

A30A-09 NO YELLOW CAUTION ZONE LGTS.
DUE TO PARACHUTE DROP ZONE ON N SIDE OF ARPT, ALL TFC TO REMAIN S OF RWY 09/27.
DEER & BIRDS ON & INVOF ARPT.
RWY HOLD MARKINGS VERY FADED AT BOTH ENDS OF THE RWY AND LESS THAN STD DSPLCMT FR RWY.
ARPT UNATTND THANKSGIVING, CHRISTMAS, NEW YEAR'S DAY AND EASTER.
FOR CD CTC PHILADELPHIA APCH AT 800-354-9884.

Instrument Procedures

NOTE: All procedures below are presented as PDF files. If you need a reader for these files, you should download the free Adobe Reader.

NOT FOR NAVIGATION. Please procure official charts for flight.
FAA instrument procedures published for use from 02 January 2020 at 0901Z to 30 January 2020 at 0900Z.

 
IAPs - Instrument Approach Procedures
VOR OR GPS RWY 09   download (162KB)
NOTE: Special Take-Off Minimums/Departure Procedures apply   download (150KB)

Other nearby airports with instrument procedures:

19N - Camden County Airport (6 nm NE)
29N - Kroelinger Airport (11 nm S)
N81 - Hammonton Municipal Airport (13 nm E)
KPHL - Philadelphia International Airport (14 nm NW)
KVAY - South Jersey Regional Airport (17 nm NE)
7N7 - Spitfire Aerodrome (17 nm W)
N14 - Flying W Airport (17 nm NE)
 
Loc | Ops | Rwys | IFR | FBO | Links
Com | Nav | Svcs | Stats | Notes
Area around 17N (Cross Keys Airport)
 
Road maps at: MapQuest Bing Google
 
Aerial photo
WARNING: Photo may not be current or correct
Aerial photo of 17N (Cross Keys Airport)
Photo courtesy of AirNav, LLC
Photo taken 21-Jul-2010

Do you have a better or more recent aerial photo of Cross Keys Airport that you would like to share? If so, please send us your photo.

 
Sectional chart

 
Airport distance calculator
Flying to Cross Keys Airport? Find the distance to fly.

From to 17N

Sunrise and sunset
Times for 19-Jan-2020
 Local
(UTC-5)
 Zulu
(UTC)
Morning civil twilight06:4911:49
Sunrise07:1912:19
Sunset17:0322:03
Evening civil twilight17:3322:33

Current date and time
Zulu (UTC)  19-Jan-2020 12:58:02
Local (UTC-5)  19-Jan-2020 07:58:02
 
METAR
KPHL 
13nm NW 
191254Z 25007KT 10SM FEW060 SCT080 BKN250 02/01 A2976 RMK AO2 SLP077 T00220006 $
KVAY 
16nm NE 
ASOS 119.325 609-267-1176
191254Z AUTO 00000KT 2SM BR FEW075 01/00 A2975 RMK AO2 SLP076 T00110000 $
KMIV 
20nm S 
191254Z AUTO 27004KT 7SM OVC006 04/03 A2976 RMK AO2 SLP079 T00440033
KPNE 
23nm N 
191254Z 24004KT 8SM CLR 03/01 A2976 RMK AO2 SLP077 T00280006
KACY 
25nm SE 
191254Z 27004KT 10SM FEW008 OVC060 06/04 A2976 RMK AO2 SLP078 T00610039 $
KILG 
26nm W 
191251Z 28003KT 3SM BR CLR 01/00 A2976 RMK AO2 SLP079 T00110000
TAF
KPHL 
13nm NW 
191136Z 1912/2018 27010KT P6SM SCT045 BKN080 FM191400 29016G28KT P6SM SCT045 FM192300 31012G20KT P6SM SCT045 TEMPO 2004/2008 BKN045 FM201200 34012G20KT P6SM SKC
NOTAMs
Click for the latest NOTAMs
NOTAMs are issued by the DoD/FAA and will open in a separate window not controlled by AirNav.

 

 
 

FBO, Fuel Providers, and Aircraft Ground Support

  
 Business Name 
 
 Contact 
 
 Services / Description 
 
Fuel Prices
 
Comments
  
Cross Keys Airport 856-629-3033
no information available

If you are affiliated with Cross Keys Airport and would like to show here your services, contact info, web link, logo, and more, click here
100LL Jet A
AS --- $5.25 
PS $5.55 --- 
 Updated 14-Jan-2020
 
   write
AS=Assisted/Self Service
PS=Pump service
Update Fuel Prices
 

Would you like to see your business listed on this page?

 If your business provides an interesting product or service to pilots, flight crews, aircraft, or users of the Cross Keys Airport, you should consider listing it here.  To start the listing process, click on the button below
 
Add a business
 

Other Pages about Cross Keys Airport

Update a link
 
Copyright © AirNav, LLC. All rights reserved. Privacy Policy  Contact